Time;durP1;ratioP1;P1;durP2;ratioP2;P2;SDS_P1;SDS_P2;PMS_P1;PMS_P2;Temp;Humidity;BMP_temperature;BMP_pressure;BME280_temperature;BME280_humidity;BME280_pressure;Samples;Min_cycle;Max_cycle;Signal;HPM_P1;HPM_P2
2022/02/25 00:01:48;;;;;;;19.90;9.40;;;;;;;5.72;61.21;99759.55;89449;1279;88177;-81
2022/02/25 00:03:54;;;;;;;18.60;10.20;;;;;;;5.73;61.35;99759.42;89374;1279;94260;-82
2022/02/25 00:06:03;;;;;;;22.90;13.00;;;;;;;5.75;61.18;99759.91;89485;1277;77694;-82
2022/02/25 00:08:09;;;;;;;18.00;10.50;;;;;;;5.77;61.41;99757.79;89478;1278;80591;-65
2022/02/25 00:10:17;;;;;;;19.60;9.20;;;;;;;5.79;61.33;99755.74;89489;1277;101182;-64
2022/02/25 00:12:23;;;;;;;17.20;8.50;;;;;;;5.82;61.43;99749.96;89522;1278;87227;-83
2022/02/25 00:14:29;;;;;;;17.00;8.60;;;;;;;5.91;61.37;99752.80;89420;1279;95175;-82
2022/02/25 00:16:35;;;;;;;15.60;8.00;;;;;;;5.96;61.56;99749.64;89510;1277;77274;-83
2022/02/25 00:18:40;;;;;;;15.70;8.20;;;;;;;6.00;61.51;99747.01;89503;1277;82664;-82
2022/02/25 00:20:46;;;;;;;15.50;7.90;;;;;;;6.08;61.56;99747.25;89485;1278;100045;-82
2022/02/25 00:22:55;;;;;;;17.10;8.10;;;;;;;6.17;61.55;99746.35;89500;1278;86657;-81
2022/02/25 00:25:11;;;;;;;15.60;7.80;;;;;;;6.20;61.64;99744.17;89409;1279;95210;-81
2022/02/25 00:27:17;;;;;;;14.20;8.00;;;;;;;6.21;61.82;99738.50;89494;1278;78340;-83
2022/02/25 00:29:23;;;;;;;13.40;7.40;;;;;;;6.23;61.58;99742.42;89430;1279;84782;-82
2022/02/25 00:31:29;;;;;;;15.00;8.00;;;;;;;6.27;61.59;99745.21;89488;1278;99646;-65
2022/02/25 00:33:34;;;;;;;15.10;8.40;;;;;;;6.28;61.59;99743.59;89387;1279;88574;-65
2022/02/25 00:35:40;;;;;;;19.10;8.20;;;;;;;6.32;61.42;99748.30;89466;1277;93857;-65
2022/02/25 00:37:46;;;;;;;15.70;8.40;;;;;;;6.35;61.24;99746.02;89477;1278;77407;-82
2022/02/25 00:39:51;;;;;;;17.50;8.90;;;;;;;6.37;61.21;99740.59;89501;1278;80930;-82
2022/02/25 00:41:57;;;;;;;14.90;8.10;;;;;;;6.39;61.24;99741.95;89491;1277;100667;-83
2022/02/25 00:44:03;;;;;;;18.60;8.60;;;;;;;6.42;61.08;99738.21;89493;1278;87417;-83
2022/02/25 00:46:09;;;;;;;17.20;8.20;;;;;;;6.44;61.08;99738.63;89416;1279;94728;-83
2022/02/25 00:48:14;;;;;;;17.50;8.10;;;;;;;6.46;61.01;99739.35;89473;1277;79027;-64
2022/02/25 00:50:23;;;;;;;17.30;8.70;;;;;;;6.48;60.95;99737.44;89489;1278;82008;-64
2022/02/25 00:52:29;;;;;;;15.90;8.50;;;;;;;6.49;60.93;99737.02;89501;1277;100976;-83
2022/02/25 00:54:39;;;;;;;16.80;8.10;;;;;;;6.50;60.88;99737.30;89489;1277;88860;-81
2022/02/25 00:56:48;;;;;;;15.90;8.30;;;;;;;6.49;60.89;99733.58;89412;1279;95039;-65
2022/02/25 00:58:53;;;;;;;17.10;8.40;;;;;;;6.50;60.96;99733.52;89486;1277;77994;-66
2022/02/25 01:01:02;;;;;;;22.60;9.00;;;;;;;6.50;61.05;99729.52;89504;1278;83838;-65
2022/02/25 01:03:08;;;;;;;15.30;7.70;;;;;;;6.52;61.14;99723.73;89471;1277;99706;-65
2022/02/25 01:05:14;;;;;;;14.40;7.80;;;;;;;6.53;61.12;99724.04;89417;1279;87620;-65
2022/02/25 01:07:19;;;;;;;16.40;8.80;;;;;;;6.55;61.06;99722.00;89486;1278;93629;-84
2022/02/25 01:09:28;;;;;;;17.80;8.10;;;;;;;6.56;61.01;99725.52;89462;1277;77581;-84
2022/02/25 01:11:33;;;;;;;13.80;7.50;;;;;;;6.57;61.17;99723.18;89426;1278;81750;-82
2022/02/25 01:13:42;;;;;;;19.30;9.00;;;;;;;6.56;61.14;99719.16;89431;1279;98588;-83
2022/02/25 01:15:47;;;;;;;15.40;8.20;;;;;;;6.55;61.21;99716.44;89416;1279;89041;-84
2022/02/25 01:17:53;;;;;;;19.70;8.80;;;;;;;6.54;61.10;99715.83;89398;1279;95342;-64
2022/02/25 01:19:58;;;;;;;14.70;8.30;;;;;;;6.55;61.01;99712.30;89422;1279;77252;-65
2022/02/25 01:22:04;;;;;;;14.50;7.60;;;;;;;6.55;60.97;99713.78;89508;1278;82674;-84
2022/02/25 01:24:13;;;;;;;16.10;7.90;;;;;;;6.54;60.95;99706.70;89415;1279;101648;-82
2022/02/25 01:26:28;;;;;;;15.80;8.20;;;;;;;6.56;61.00;99703.48;89493;1278;87482;-82
2022/02/25 01:28:37;;;;;;;16.10;8.60;;;;;;;6.56;61.10;99699.89;89386;1279;95534;-64
2022/02/25 01:30:45;;;;;;;16.30;9.00;;;;;;;6.57;60.88;99699.20;89389;1279;76861;-64
2022/02/25 01:32:51;;;;;;;15.00;8.00;;;;;;;6.60;60.94;99696.40;89419;1280;80304;-65
2022/02/25 01:35:00;;;;;;;17.50;8.00;;;;;;;6.61;60.95;99689.99;89407;1280;100361;-64
2022/02/25 01:37:09;;;;;;;18.00;8.40;;;;;;;6.60;61.04;99691.20;89434;1280;89454;-82
2022/02/25 01:39:19;;;;;;;16.90;7.50;;;;;;;6.59;61.02;99694.30;89483;1277;95782;-82
2022/02/25 01:41:25;;;;;;;15.70;7.70;;;;;;;6.59;61.11;99694.33;89513;1278;79446;-82
2022/02/25 01:43:30;;;;;;;19.60;8.30;;;;;;;6.60;60.88;99689.55;89529;1277;82959;-81
2022/02/25 01:45:39;;;;;;;16.20;7.50;;;;;;;6.62;61.00;99690.82;89383;1280;99616;-81
2022/02/25 01:47:48;;;;;;;15.60;7.90;;;;;;;6.62;60.87;99689.37;89365;1279;88024;-83
2022/02/25 01:49:54;;;;;;;15.50;7.90;;;;;;;6.61;60.98;99683.00;89415;1280;95347;-82
2022/02/25 01:52:01;;;;;;;16.50;8.30;;;;;;;6.60;60.96;99680.46;89400;1280;77965;-64
2022/02/25 01:54:07;;;;;;;16.20;7.80;;;;;;;6.61;60.80;99678.18;89389;1279;81320;-64
2022/02/25 01:56:14;;;;;;;17.30;7.90;;;;;;;6.63;60.93;99674.70;89394;1280;100749;-65
2022/02/25 01:58:19;;;;;;;17.00;7.50;;;;;;;6.64;61.13;99672.52;89419;1280;89575;-64
2022/02/25 02:00:26;;;;;;;18.20;7.90;;;;;;;6.66;60.95;99673.17;89380;1280;96293;-64
2022/02/25 02:02:34;;;;;;;15.30;7.80;;;;;;;6.68;60.90;99673.45;89408;1281;77889;-64
2022/02/25 02:04:40;;;;;;;13.70;7.00;;;;;;;6.71;60.88;99671.95;89419;1279;82885;-64
2022/02/25 02:06:46;;;;;;;19.00;7.90;;;;;;;6.76;60.79;99671.03;89397;1279;101736;-64
2022/02/25 02:08:52;;;;;;;15.20;7.30;;;;;;;6.76;60.79;99669.20;89507;1277;89559;-64
2022/02/25 02:11:01;;;;;;;14.10;7.90;;;;;;;6.74;60.79;99670.71;89517;1277;95573;-64
2022/02/25 02:13:06;;;;;;;16.40;7.70;;;;;;;6.72;60.84;99667.61;89497;1277;77431;-64
2022/02/25 02:15:15;;;;;;;13.40;7.60;;;;;;;6.69;60.73;99671.00;89385;1280;83440;-65
2022/02/25 02:17:24;;;;;;;16.10;8.10;;;;;;;6.68;60.97;99667.34;89391;1279;100937;-64
2022/02/25 02:19:30;;;;;;;16.60;7.70;;;;;;;6.68;60.69;99668.98;89389;1279;86705;-64
2022/02/25 02:21:39;;;;;;;12.80;6.60;;;;;;;6.67;60.58;99665.92;89373;1280;95769;-64
2022/02/25 02:23:45;;;;;;;16.40;7.10;;;;;;;6.64;60.77;99667.45;89382;1281;77594;-66
2022/02/25 02:25:53;;;;;;;17.00;7.60;;;;;;;6.61;60.86;99673.55;89399;1280;81487;-64
2022/02/25 02:30:26;;;;;;;13.60;7.50;;;;;;;6.58;60.93;99677.30;89392;1279;89171;-64
2022/02/25 02:32:31;;;;;;;13.30;6.80;;;;;;;6.55;60.90;99680.55;89378;1279;94818;-81
2022/02/25 02:34:38;;;;;;;13.60;6.40;;;;;;;6.53;60.91;99680.95;89504;1278;77888;-80
2022/02/25 02:36:44;;;;;;;16.60;7.70;;;;;;;6.53;61.03;99680.33;89534;1277;81150;-64
2022/02/25 02:38:52;;;;;;;13.20;7.00;;;;;;;6.52;60.93;99682.82;89528;1277;99131;-64
2022/02/25 02:40:58;;;;;;;14.50;7.30;;;;;;;6.48;60.94;99683.75;89365;1279;89813;-64
2022/02/25 02:43:07;;;;;;;13.90;7.10;;;;;;;6.46;60.85;99679.55;89479;1277;93610;-80
2022/02/25 02:45:15;;;;;;;14.40;7.30;;;;;;;6.44;61.10;99675.67;89513;1277;78483;-81
2022/02/25 02:47:23;;;;;;;13.30;7.40;;;;;;;6.42;60.96;99677.25;89540;1277;82335;-64
2022/02/25 02:49:29;;;;;;;14.10;7.20;;;;;;;6.38;61.01;99677.46;89550;1277;100016;-64
2022/02/25 02:51:36;;;;;;;14.40;7.20;;;;;;;6.36;61.02;99675.62;89539;1277;89694;-80
2022/02/25 02:53:41;;;;;;;15.10;7.10;;;;;;;6.35;61.03;99676.75;89569;1277;94681;-81
2022/02/25 02:55:50;;;;;;;13.40;7.10;;;;;;;6.35;61.02;99673.53;89536;1277;79011;-82
2022/02/25 02:57:58;;;;;;;14.40;7.00;;;;;;;6.34;61.04;99674.26;89394;1279;83250;-64
2022/02/25 03:00:06;;;;;;;16.50;7.60;;;;;;;6.31;61.16;99677.22;89571;1277;100073;-64
2022/02/25 03:02:11;;;;;;;13.20;6.70;;;;;;;6.28;61.39;99683.75;89561;1277;87420;-81
2022/02/25 03:04:17;;;;;;;12.80;6.90;;;;;;;6.24;61.42;99678.95;89547;1277;95618;-82
2022/02/25 03:06:25;;;;;;;17.10;7.60;;;;;;;6.24;61.28;99685.80;89310;1280;78129;-68
2022/02/25 03:08:33;;;;;;;17.20;7.60;;;;;;;6.24;61.39;99688.08;89570;1277;83715;-65
2022/02/25 03:10:44;;;;;;;15.60;7.80;;;;;;;6.28;61.51;99692.14;89387;1279;98422;-64
2022/02/25 03:12:53;;;;;;;15.20;7.70;;;;;;;6.29;61.25;99692.41;89567;1277;89375;-64
2022/02/25 03:15:02;;;;;;;14.10;7.70;;;;;;;6.31;61.48;99693.77;89393;1280;92548;-64
2022/02/25 03:17:11;;;;;;;13.00;7.10;;;;;;;6.31;61.58;99698.51;89557;1277;80684;-82
2022/02/25 03:19:17;;;;;;;15.60;7.20;;;;;;;6.32;61.57;99695.91;89557;1277;82062;-81
2022/02/25 03:21:22;;;;;;;14.40;6.90;;;;;;;6.33;61.68;99694.38;89580;1277;100328;-69
2022/02/25 03:23:31;;;;;;;14.60;7.10;;;;;;;6.34;61.60;99692.67;89571;1277;88310;-64
2022/02/25 03:25:40;;;;;;;13.70;6.40;;;;;;;6.35;61.66;99692.52;89372;1279;95593;-65
2022/02/25 03:27:47;;;;;;;12.60;6.80;;;;;;;6.35;61.46;99689.51;89559;1277;79261;-64
2022/02/25 03:29:53;;;;;;;14.70;6.50;;;;;;;6.34;61.66;99694.84;89581;1277;79182;-64
2022/02/25 03:31:59;;;;;;;13.60;7.00;;;;;;;6.33;61.59;99692.05;89549;1277;99991;-64
2022/02/25 03:34:07;;;;;;;16.20;6.50;;;;;;;6.35;61.56;99695.02;89539;1277;88101;-64
2022/02/25 03:36:13;;;;;;;14.60;7.00;;;;;;;6.36;61.68;99693.81;88821;1277;1001598;-64
2022/02/25 03:38:19;;;;;;;14.70;6.90;;;;;;;6.37;61.64;99694.11;89569;1277;77731;-81
2022/02/25 03:40:27;;;;;;;15.00;6.10;;;;;;;6.38;61.63;99691.45;89390;1279;79448;-81
2022/02/25 03:42:32;;;;;;;16.10;8.20;;;;;;;6.37;61.81;99689.70;89577;1277;100698;-64
2022/02/25 03:44:38;;;;;;;14.40;6.40;;;;;;;6.39;61.60;99693.52;89566;1277;88193;-64
2022/02/25 03:46:43;;;;;;;12.40;6.70;;;;;;;6.42;61.72;99696.69;89560;1277;94150;-64
2022/02/25 03:48:50;;;;;;;13.00;6.30;;;;;;;6.43;61.69;99697.67;89385;1278;78399;-64
2022/02/25 03:50:59;;;;;;;17.80;6.80;;;;;;;6.43;61.83;99703.55;89396;1279;81353;-64
2022/02/25 03:53:08;;;;;;;15.70;7.00;;;;;;;6.44;61.61;99703.61;89553;1277;101026;-64
2022/02/25 03:55:17;;;;;;;14.80;6.40;;;;;;;6.45;61.92;99711.77;89378;1279;88888;-64
2022/02/25 03:57:26;;;;;;;9.50;5.80;;;;;;;6.46;61.81;99710.86;89389;1279;95942;-80
2022/02/25 03:59:35;;;;;;;12.60;6.10;;;;;;;6.47;61.92;99715.63;89407;1279;77875;-80
2022/02/25 04:01:41;;;;;;;11.50;5.60;;;;;;;6.45;61.98;99715.98;89347;1278;80167;-64
2022/02/25 04:03:49;;;;;;;11.50;5.70;;;;;;;6.45;62.04;99725.09;89316;1279;98557;-64
2022/02/25 04:05:55;;;;;;;10.80;5.80;;;;;;;6.48;62.07;99726.42;89381;1279;87657;-64
2022/02/25 04:08:01;;;;;;;13.60;6.40;;;;;;;6.50;62.00;99725.10;89301;1279;94351;-80
2022/02/25 04:10:11;;;;;;;15.20;6.50;;;;;;;6.51;62.18;99724.23;89318;1279;77007;-79
2022/02/25 04:12:17;;;;;;;14.10;6.10;;;;;;;6.51;62.08;99721.02;89235;1281;81113;-80
2022/02/25 04:14:25;;;;;;;11.80;6.50;;;;;;;6.48;62.02;99722.79;89337;1279;101158;-81
2022/02/25 04:16:34;;;;;;;12.60;6.30;;;;;;;6.42;62.21;99722.77;89344;1280;88589;-79
2022/02/25 04:18:41;;;;;;;13.20;6.40;;;;;;;6.36;62.32;99722.86;89215;1281;93991;-81
2022/02/25 04:20:46;;;;;;;10.50;5.60;;;;;;;6.31;62.29;99726.40;89317;1279;79830;-80
2022/02/25 04:22:53;;;;;;;9.70;5.40;;;;;;;6.27;62.64;99725.54;89400;1279;83082;-79
2022/02/25 04:24:58;;;;;;;10.70;5.00;;;;;;;6.22;62.84;99727.44;89395;1278;100752;-80
2022/02/25 04:27:07;;;;;;;10.00;4.70;;;;;;;6.21;63.05;99732.79;89348;1279;88182;-81
2022/02/25 04:29:13;;;;;;;11.10;4.50;;;;;;;6.23;63.26;99737.93;89312;1280;94726;-80
2022/02/25 04:31:22;;;;;;;9.50;4.60;;;;;;;6.26;63.54;99744.67;89335;1280;80698;-79
2022/02/25 04:33:28;;;;;;;7.20;4.10;;;;;;;6.31;63.60;99743.30;89227;1281;79348;-64
2022/02/25 04:35:34;;;;;;;8.60;4.50;;;;;;;6.34;63.69;99744.28;89337;1279;99746;-64
2022/02/25 04:37:42;;;;;;;11.00;4.50;;;;;;;6.38;63.77;99755.30;89309;1279;89019;-79
2022/02/25 04:39:51;;;;;;;8.10;4.30;;;;;;;6.45;64.03;99772.64;89310;1279;92540;-80
2022/02/25 04:41:57;;;;;;;7.00;3.70;;;;;;;6.52;63.97;99786.39;89299;1279;78558;-64
2022/02/25 04:44:06;;;;;;;6.90;3.70;;;;;;;6.58;64.11;99791.81;89193;1281;80817;-64
2022/02/25 04:46:19;;;;;;;6.90;4.00;;;;;;;6.64;64.27;99796.59;89325;1279;98782;-64
2022/02/25 04:48:25;;;;;;;8.00;3.80;;;;;;;6.70;64.26;99800.08;89308;1279;88369;-65
2022/02/25 04:50:31;;;;;;;4.90;3.30;;;;;;;6.74;64.31;99801.48;89299;1279;94474;-63
2022/02/25 04:52:37;;;;;;;7.00;2.80;;;;;;;6.80;64.32;99805.85;89353;1279;77481;-79
2022/02/25 04:54:43;;;;;;;6.20;2.50;;;;;;;6.84;64.34;99808.98;89353;1279;80396;-79
2022/02/25 04:56:48;;;;;;;5.90;1.90;;;;;;;6.86;64.24;99819.05;89393;1279;101815;-63
2022/02/25 04:58:55;;;;;;;5.80;2.20;;;;;;;6.88;64.07;99824.56;89256;1280;88340;-63
2022/02/25 05:01:01;;;;;;;5.10;2.00;;;;;;;6.88;63.99;99832.59;89377;1279;94334;-63
2022/02/25 05:03:07;;;;;;;3.10;1.80;;;;;;;6.88;63.95;99833.16;89309;1279;77437;-63
2022/02/25 05:05:13;;;;;;;2.90;1.30;;;;;;;6.86;63.96;99840.93;89334;1279;81904;-63
2022/02/25 05:07:22;;;;;;;2.30;1.10;;;;;;;6.83;63.96;99854.98;89317;1279;101102;-63
2022/02/25 05:09:30;;;;;;;6.10;2.30;;;;;;;6.82;63.93;99863.71;89228;1281;87637;-63
2022/02/25 05:11:36;;;;;;;2.50;1.60;;;;;;;6.81;63.85;99864.76;89293;1279;95826;-79
2022/02/25 05:13:42;;;;;;;2.80;1.10;;;;;;;6.80;64.03;99872.41;89252;1281;76920;-77
2022/02/25 05:20:35;;;;;;;2.10;1.10;;;;;;;6.67;64.23;99902.39;89322;1279;87625;-78
2022/02/25 05:22:42;;;;;;;2.70;1.20;;;;;;;6.61;64.15;99901.79;89337;1279;92986;-78
2022/02/25 05:24:47;;;;;;;2.60;1.10;;;;;;;6.57;64.11;99912.67;89312;1279;79762;-78
2022/02/25 05:26:53;;;;;;;6.00;2.40;;;;;;;6.52;64.09;99917.70;89286;1281;81953;-77
2022/02/25 05:29:02;;;;;;;5.70;2.20;;;;;;;6.47;64.38;99924.09;89331;1279;100499;-78
2022/02/25 05:31:08;;;;;;;5.70;2.70;;;;;;;6.45;64.18;99928.70;89278;1280;87228;-78
2022/02/25 05:33:14;;;;;;;6.00;2.10;;;;;;;6.41;64.22;99930.58;89316;1279;92823;-78
2022/02/25 05:35:20;;;;;;;4.10;2.00;;;;;;;6.37;64.21;99933.73;89260;1280;77131;-78
2022/02/25 05:37:26;;;;;;;4.00;2.00;;;;;;;6.33;64.37;99943.50;89302;1280;83228;-79
2022/02/25 05:39:35;;;;;;;2.90;1.50;;;;;;;6.29;64.38;99951.22;89339;1279;99951;-79
2022/02/25 05:41:40;;;;;;;2.50;1.30;;;;;;;6.26;64.51;99952.00;89268;1281;89253;-63
2022/02/25 05:43:47;;;;;;;1.80;0.90;;;;;;;6.20;64.48;99960.70;89317;1279;95796;-78
2022/02/25 05:45:52;;;;;;;2.60;1.20;;;;;;;6.15;64.27;99964.52;89322;1279;77400;-78
2022/02/25 05:48:01;;;;;;;2.50;1.30;;;;;;;6.11;64.39;99971.05;89340;1279;82126;-63
2022/02/25 05:50:13;;;;;;;1.10;0.70;;;;;;;6.07;64.38;99982.26;89316;1279;99923;-64
2022/02/25 05:52:22;;;;;;;1.00;0.60;;;;;;;6.03;64.32;99984.95;89262;1280;88517;-78
2022/02/25 05:54:30;;;;;;;1.70;0.90;;;;;;;6.01;64.50;99987.73;89301;1279;94734;-79
2022/02/25 05:56:38;;;;;;;1.60;0.80;;;;;;;5.96;64.43;99991.84;89333;1279;77547;-77
2022/02/25 05:58:44;;;;;;;2.10;1.20;;;;;;;5.93;64.57;99992.91;89332;1279;84323;-78
2022/02/25 06:00:53;;;;;;;3.10;1.80;;;;;;;5.91;64.82;99999.04;89366;1279;97708;-78
2022/02/25 06:03:01;;;;;;;1.80;0.80;;;;;;;5.89;64.93;100001.36;89345;1279;89595;-65
2022/02/25 06:05:09;;;;;;;1.70;0.90;;;;;;;5.88;65.25;100007.19;89323;1279;95395;-64
2022/02/25 06:07:14;;;;;;;2.20;0.90;;;;;;;5.90;65.33;100008.36;89328;1279;78395;-65
2022/02/25 06:09:20;;;;;;;2.80;1.50;;;;;;;5.94;65.41;100013.52;89309;1279;83054;-65
2022/02/25 06:11:28;;;;;;;3.20;1.80;;;;;;;5.98;65.46;100015.73;89345;1279;100078;-82
2022/02/25 06:13:34;;;;;;;3.20;2.40;;;;;;;6.02;65.63;100016.79;89310;1281;88438;-80
2022/02/25 06:15:44;;;;;;;4.80;2.00;;;;;;;6.02;65.41;100025.84;89334;1279;94353;-83
2022/02/25 06:17:53;;;;;;;3.00;1.20;;;;;;;6.06;65.74;100033.30;89332;1279;77414;-64
2022/02/25 06:20:02;;;;;;;2.10;1.00;;;;;;;6.13;65.73;100038.44;89356;1279;81486;-65
2022/02/25 06:22:11;;;;;;;1.80;1.00;;;;;;;6.18;65.71;100046.73;89336;1279;99754;-66
2022/02/25 06:24:17;;;;;;;2.20;1.00;;;;;;;6.16;65.45;100053.02;89369;1279;88010;-65
2022/02/25 06:26:25;;;;;;;1.40;0.90;;;;;;;6.15;65.62;100055.29;89347;1279;93345;-73
2022/02/25 06:28:31;;;;;;;1.40;0.80;;;;;;;6.15;65.72;100061.46;89369;1279;78048;-65
2022/02/25 06:30:40;;;;;;;1.40;0.80;;;;;;;6.14;65.57;100060.29;89401;1279;82366;-65
2022/02/25 06:32:46;;;;;;;0.80;0.60;;;;;;;6.08;65.77;100058.27;89424;1279;98756;-66
2022/02/25 06:34:52;;;;;;;0.70;0.60;;;;;;;6.06;65.85;100061.52;89397;1279;88292;-66
2022/02/25 06:36:58;;;;;;;1.20;0.80;;;;;;;5.99;65.86;100066.27;89347;1279;95382;-66
2022/02/25 06:39:08;;;;;;;1.20;1.10;;;;;;;5.92;66.06;100068.17;89263;1280;78977;-64
2022/02/25 06:41:14;;;;;;;1.30;0.90;;;;;;;5.92;66.13;100077.75;89352;1279;82262;-63
2022/02/25 06:43:20;;;;;;;2.10;0.70;;;;;;;5.89;66.45;100072.26;89361;1279;98562;-79
2022/02/25 06:45:29;;;;;;;1.30;0.80;;;;;;;5.91;66.28;100077.13;89359;1279;89312;-80
2022/02/25 06:47:34;;;;;;;1.20;0.80;;;;;;;5.92;66.41;100082.31;89292;1281;95367;-79
2022/02/25 06:49:40;;;;;;;3.80;1.10;;;;;;;5.96;66.30;100089.27;89352;1279;80520;-79
2022/02/25 06:51:46;;;;;;;1.60;1.00;;;;;;;6.01;66.10;100092.43;89361;1279;80646;-80
2022/02/25 06:53:52;;;;;;;1.30;0.80;;;;;;;6.00;66.34;100094.89;89363;1278;100580;-81
2022/02/25 06:55:58;;;;;;;2.30;1.30;;;;;;;6.03;66.34;100107.29;89351;1278;89222;-79
2022/02/25 06:58:06;;;;;;;3.10;1.30;;;;;;;6.04;66.09;100107.48;89361;1279;96161;-80
2022/02/25 07:00:21;;;;;;;1.60;1.00;;;;;;;6.06;66.31;100107.45;89371;1279;78270;-79
2022/02/25 07:02:27;;;;;;;2.00;0.80;;;;;;;6.03;66.10;100116.90;89374;1279;82880;-79
2022/02/25 07:04:35;;;;;;;1.30;0.90;;;;;;;6.06;66.15;100122.76;89376;1279;98185;-80
2022/02/25 07:06:44;;;;;;;1.20;0.90;;;;;;;6.10;65.74;100123.84;89359;1278;87875;-80
2022/02/25 07:08:50;;;;;;;1.70;0.90;;;;;;;6.06;65.95;100134.10;89292;1281;95667;-79
2022/02/25 07:10:59;;;;;;;3.50;1.10;;;;;;;6.06;65.65;100139.42;89348;1279;77414;-79
2022/02/25 07:13:10;;;;;;;1.70;0.90;;;;;;;6.06;65.90;100140.55;89352;1279;81483;-65
2022/02/25 07:15:16;;;;;;;2.00;1.10;;;;;;;6.07;65.64;100148.77;89350;1279;100430;-64
2022/02/25 07:17:25;;;;;;;2.40;1.10;;;;;;;6.12;65.57;100158.42;89367;1279;88611;-80
2022/02/25 07:19:32;;;;;;;2.30;0.90;;;;;;;6.15;65.50;100160.48;89378;1278;95106;-81
2022/02/25 07:21:39;;;;;;;1.50;0.80;;;;;;;6.16;65.51;100164.83;89405;1279;76592;-81
2022/02/25 07:23:48;;;;;;;1.80;1.00;;;;;;;6.13;65.47;100167.12;89394;1279;83599;-79
2022/02/25 07:25:55;;;;;;;1.20;0.90;;;;;;;6.11;65.38;100175.87;89340;1279;99978;-79
2022/02/25 07:28:01;;;;;;;2.20;0.90;;;;;;;6.16;65.51;100175.49;89385;1279;88566;-80
2022/02/25 07:30:09;;;;;;;1.80;1.10;;;;;;;6.23;65.49;100176.54;89421;1279;94208;-80
2022/02/25 07:32:16;;;;;;;1.20;0.90;;;;;;;6.40;65.48;100184.42;89422;1279;76954;-82
2022/02/25 07:34:22;;;;;;;1.90;1.00;;;;;;;6.50;65.26;100191.37;89403;1279;81515;-76
2022/02/25 07:36:28;;;;;;;1.70;1.20;;;;;;;6.69;65.24;100192.42;89461;1279;98830;-77
2022/02/25 07:38:34;;;;;;;2.30;1.30;;;;;;;6.83;64.93;100200.09;89374;1279;89106;-80
2022/02/25 07:40:41;;;;;;;2.60;1.30;;;;;;;6.81;64.67;100207.65;89241;1281;94957;-65
2022/02/25 07:42:47;;;;;;;3.60;1.40;;;;;;;6.77;64.55;100216.70;89431;1279;79394;-65
2022/02/25 07:44:53;;;;;;;2.80;1.40;;;;;;;6.76;64.35;100219.45;89364;1279;81610;-65
2022/02/25 07:47:02;;;;;;;4.00;1.30;;;;;;;6.72;64.19;100226.70;89396;1279;100432;-65
2022/02/25 07:49:08;;;;;;;2.20;1.20;;;;;;;6.67;63.72;100233.89;89349;1279;89667;-65
2022/02/25 07:51:14;;;;;;;3.40;1.10;;;;;;;6.84;62.79;100233.50;89347;1279;95361;-65
2022/02/25 07:53:21;;;;;;;2.20;1.00;;;;;;;7.13;62.33;100242.36;89331;1279;79072;-65
2022/02/25 07:55:30;;;;;;;3.60;1.60;;;;;;;9.01;62.93;100249.41;89274;1281;80657;-65
2022/02/25 07:57:35;;;;;;;2.50;1.30;;;;;;;10.68;60.58;100246.52;89363;1279;100596;-65
2022/02/25 07:59:47;;;;;;;2.40;0.90;;;;;;;11.01;57.43;100255.65;89328;1278;88250;-65
2022/02/25 08:01:53;;;;;;;4.60;1.10;;;;;;;10.78;57.53;100267.55;89348;1279;94625;-80
2022/02/25 08:04:02;;;;;;;2.80;1.20;;;;;;;10.65;57.06;100277.66;89322;1281;79375;-80
2022/02/25 08:06:11;;;;;;;5.00;2.00;;;;;;;10.06;56.43;100282.75;89297;1281;80468;-65
2022/02/25 08:08:16;;;;;;;3.70;1.10;;;;;;;9.62;55.84;100295.29;89361;1279;98352;-80
2022/02/25 08:10:26;;;;;;;2.60;1.00;;;;;;;9.13;55.53;100298.34;89387;1279;87669;-79
2022/02/25 08:12:31;;;;;;;3.10;1.30;;;;;;;8.65;56.02;100307.42;89368;1279;95763;-65
2022/02/25 08:14:40;;;;;;;3.90;2.20;;;;;;;8.67;56.44;100300.95;89323;1279;77461;-65
2022/02/25 08:16:46;;;;;;;3.00;1.70;;;;;;;9.41;56.69;100299.36;89284;1281;82005;-80
2022/02/25 08:18:51;;;;;;;4.20;2.10;;;;;;;9.83;55.36;100302.59;89346;1279;98939;-80
2022/02/25 08:20:57;;;;;;;2.60;1.70;;;;;;;9.53;55.28;100304.99;89456;1279;89330;-75
2022/02/25 08:23:06;;;;;;;2.30;1.40;;;;;;;9.41;55.43;100302.33;89449;1278;95420;-79
2022/02/25 08:25:13;;;;;;;6.00;2.10;;;;;;;9.20;55.43;100307.56;89480;1279;77361;-64
2022/02/25 08:27:18;;;;;;;2.90;1.70;;;;;;;9.91;55.30;100306.06;89334;1279;81266;-64
2022/02/25 08:29:27;;;;;;;3.10;1.60;;;;;;;11.42;54.74;100296.13;89301;1279;99945;-63
2022/02/25 08:31:33;;;;;;;2.80;1.50;;;;;;;12.26;53.52;100299.40;89278;1281;87912;-80
2022/02/25 08:33:39;;;;;;;3.70;1.50;;;;;;;12.46;52.15;100301.27;89358;1278;95896;-79
2022/02/25 08:35:48;;;;;;;3.20;1.30;;;;;;;11.82;51.76;100302.73;89199;1279;80009;-79
2022/02/25 08:37:57;;;;;;;6.40;1.90;;;;;;;11.64;51.97;100299.52;89343;1279;83006;-79
2022/02/25 08:40:13;;;;;;;4.20;1.40;;;;;;;11.69;51.72;100300.30;89432;1279;101096;-79
2022/02/25 08:42:19;;;;;;;2.40;1.20;;;;;;;11.09;51.01;100305.38;89408;1279;87578;-79
2022/02/25 08:44:25;;;;;;;2.80;1.20;;;;;;;10.65;51.17;100309.58;89405;1279;95590;-78
2022/02/25 08:46:31;;;;;;;3.00;1.40;;;;;;;10.44;51.51;100308.00;89419;1279;78348;-64
2022/02/25 08:48:37;;;;;;;3.70;1.20;;;;;;;10.49;51.56;100314.30;89327;1279;81384;-64
2022/02/25 08:50:47;;;;;;;2.50;1.20;;;;;;;10.32;51.67;100315.39;89391;1279;101227;-63
2022/02/25 08:52:55;;;;;;;5.40;1.70;;;;;;;10.08;51.98;100313.09;89266;1281;89635;-78
2022/02/25 08:55:01;;;;;;;2.20;1.10;;;;;;;9.84;52.17;100317.39;89314;1279;94954;-77
2022/02/25 08:57:10;;;;;;;2.00;0.80;;;;;;;9.57;52.19;100321.45;89345;1279;78385;-78
2022/02/25 08:59:18;;;;;;;2.00;0.90;;;;;;;9.23;52.31;100330.33;89305;1279;83236;-80
2022/02/25 09:01:24;;;;;;;3.80;1.00;;;;;;;9.03;52.71;100332.59;89346;1279;99015;-66
2022/02/25 09:03:30;;;;;;;4.50;1.10;;;;;;;8.88;53.02;100341.37;89311;1279;88957;-65
2022/02/25 09:05:36;;;;;;;3.60;1.10;;;;;;;8.64;52.94;100347.39;89298;1279;92913;-64
2022/02/25 09:07:42;;;;;;;2.00;1.00;;;;;;;8.86;53.45;100348.95;89297;1279;77758;-63
2022/02/25 09:09:50;;;;;;;5.60;1.50;;;;;;;9.11;53.35;100348.73;89328;1279;81807;-64
2022/02/25 09:11:59;;;;;;;2.80;1.10;;;;;;;9.25;53.35;100359.64;89292;1279;99013;-79
2022/02/25 09:14:05;;;;;;;3.40;1.20;;;;;;;9.49;53.05;100362.73;89344;1279;88745;-77
2022/02/25 09:16:11;;;;;;;2.40;1.00;;;;;;;9.53;52.65;100362.29;89336;1279;94459;-70
2022/02/25 09:18:17;;;;;;;2.40;1.20;;;;;;;9.72;52.39;100362.14;89290;1279;80958;-63
2022/02/25 09:20:27;;;;;;;3.80;1.60;;;;;;;9.94;52.24;100360.84;89251;1281;83381;-64
2022/02/25 09:22:33;;;;;;;3.80;1.10;;;;;;;10.26;51.04;100356.41;89339;1279;98842;-80
2022/02/25 09:24:38;;;;;;;3.30;1.10;;;;;;;10.31;50.64;100359.99;89331;1279;87943;-81
2022/02/25 09:26:44;;;;;;;3.70;1.20;;;;;;;10.19;50.02;100359.88;89334;1279;95002;-64
2022/02/25 09:28:49;;;;;;;4.60;1.10;;;;;;;9.85;50.49;100362.58;89318;1279;80006;-64
2022/02/25 09:30:56;;;;;;;2.80;1.40;;;;;;;9.92;51.16;100369.81;89414;1279;82634;-66
2022/02/25 09:33:01;;;;;;;2.20;1.20;;;;;;;11.13;51.65;100358.02;89418;1279;100014;-81
2022/02/25 09:35:09;;;;;;;2.10;1.00;;;;;;;12.29;50.51;100360.67;89356;1279;86248;-82
2022/02/25 09:37:15;;;;;;;2.20;1.00;;;;;;;13.28;50.21;100359.55;89212;1280;93330;-81
2022/02/25 09:39:24;;;;;;;5.80;1.20;;;;;;;13.99;49.23;100360.30;89312;1279;80998;-82
2022/02/25 09:41:33;;;;;;;2.10;1.00;;;;;;;14.91;48.04;100353.12;89241;1280;82894;-79
2022/02/25 09:43:39;;;;;;;3.00;1.10;;;;;;;15.67;47.54;100357.85;89338;1279;99703;-83
2022/02/25 09:45:44;;;;;;;4.40;1.20;;;;;;;16.05;45.94;100355.69;89313;1279;89341;-79
2022/02/25 09:47:50;;;;;;;2.00;1.00;;;;;;;15.68;44.61;100359.41;89285;1279;93555;-66
2022/02/25 09:49:56;;;;;;;1.60;0.60;;;;;;;14.98;43.81;100371.66;89328;1279;80984;-65
2022/02/25 09:52:02;;;;;;;5.00;1.40;;;;;;;14.17;43.29;100375.08;89329;1279;81007;-67
2022/02/25 09:54:10;;;;;;;3.20;1.00;;;;;;;13.26;43.69;100387.89;89304;1279;99274;-80
2022/02/25 09:56:16;;;;;;;1.80;0.90;;;;;;;12.78;44.20;100386.43;89255;1281;88847;-63
2022/02/25 09:58:22;;;;;;;2.80;0.90;;;;;;;12.47;44.11;100393.60;89196;1281;94697;-66
2022/02/25 10:00:32;;;;;;;2.90;1.20;;;;;;;12.04;44.87;100398.08;89296;1279;79861;-66
2022/02/25 10:02:43;;;;;;;4.20;1.40;;;;;;;11.53;45.18;100404.30;89247;1280;82449;-65
2022/02/25 10:05:08;;;;;;;5.90;1.30;;;;;;;10.89;45.44;100412.63;89307;1279;100177;-67